The Vly, New York
Current Conditions -  °F | °C
As of 1:53 PM on Sunday 23 Nov 2014 (Local Time) from KPOU Reporting Station
Clear Clear  
Wind Chill: 13°   Ceiling: Unl
Heat Index: 13°   Visibility: 10mi
Dew Point: -3°   Wind: 5mph
Humidity: 32%   Direction: 130°SE
Pressure: 30.09"   Gusts: NA
Location:  41.8715°N, 74.1782°W
Report Text: KPOU 231853Z 13004KT 10SM CLR 13/M03 A3009 RMK AO2 RAB03E15 SLP185 P0000 T01331033
Loading
Personal Weather Stations






























Interactive Weather Map New forecast layout! Learn more

10-Day Weather Forecast

Advertisements
Track Severe Weather on mobile